EFTU

Turku Airport

Turku, Finland
METAR EFTU 152150Z AUTO 00000KT CAVOK 10/08 Q1014
Observed Flight Rules
Aug-15 @ 21:50 UTC (36 minutes ago) Visual Flight Rules
Visibility Clouds
10,000+ meters
  • Clear skies
Temperatures Readings
Current 10°C / 50°F
Dewpoint 8°C / 46°F
Humidity 88%
Altimeter 29.94" Hg
Pressure 1014 hPa
Elevation 59
METAR EFTU 152150Z AUTO 00000KT CAVOK 10/08 Q1014
Observed Flight Rules
Aug-15 @ 21:50 UTC
(36 minutes ago)
VFR
Clouds
  • Clear skies
Temperature Dewpoint
10°C / 50°F 8°C / 46°F
Humidity Altimeter Pressure
88% 29.94" Hg 1014 hPa